createdAt,value
2018-11-20T04:29:19.639Z,5.20
2018-11-20T04:32:19.798Z,5.10
2018-11-20T04:35:14.263Z,5.10
2018-11-20T04:38:06.833Z,5.10
2018-11-20T04:40:59.178Z,5.20
2018-11-20T04:43:51.589Z,5.20
2018-11-20T04:46:43.922Z,5.20
2018-11-20T04:49:38.864Z,5.10
2018-11-20T04:52:30.949Z,5.20
2018-11-20T04:55:23.239Z,5.40
2018-11-20T04:58:15.820Z,5.30
2018-11-20T05:01:08.502Z,5.30
2018-11-20T05:04:02.684Z,5.40
2018-11-20T05:06:49.287Z,5.30
2018-11-20T05:09:41.749Z,5.30
2018-11-20T05:12:34.372Z,5.40
2018-11-20T05:15:28.321Z,5.30
2018-11-20T05:21:35.446Z,5.40
2018-11-20T05:24:19.054Z,5.30
2018-11-20T05:27:09.095Z,5.30
2018-11-20T05:30:03.240Z,5.30
2018-11-20T05:32:55.953Z,5.30
2018-11-20T05:35:44.445Z,5.30
2018-11-20T05:38:35.614Z,5.30
2018-11-20T05:41:17.059Z,5.40
2018-11-20T05:44:08.141Z,5.50
2018-11-20T05:47:03.171Z,5.40
2018-11-20T05:49:55.869Z,5.50
2018-11-20T05:52:54.185Z,5.50
2018-11-20T05:55:51.080Z,5.40
2018-11-20T05:58:47.770Z,5.40
2018-11-20T06:01:44.843Z,5.50
2018-11-20T06:04:36.060Z,5.60
2018-11-20T06:07:28.614Z,5.40
2018-11-20T06:10:22.928Z,5.40
2018-11-20T06:13:13.932Z,5.50
2018-11-20T06:16:09.573Z,5.50
2018-11-20T06:19:01.885Z,5.50
2018-11-20T06:21:52.715Z,5.50
2018-11-20T06:24:47.903Z,5.60
2018-11-20T06:27:40.430Z,5.50
2018-11-20T06:30:32.960Z,5.50
2018-11-20T06:33:33.251Z,5.50
2018-11-20T06:36:27.937Z,5.30
2018-11-20T06:39:14.595Z,5.40
2018-11-20T06:42:08.296Z,5.40
2018-11-20T06:45:18.752Z,5.40
2018-11-20T06:48:18.784Z,5.40
2018-11-20T06:51:21.849Z,5.40
2018-11-20T06:54:10.516Z,5.50
2018-11-20T06:57:02.761Z,5.40
2018-11-20T06:59:53.581Z,5.40
2018-11-20T07:02:51.741Z,5.40
2018-11-20T07:05:53.166Z,5.50
2018-11-20T07:08:49.441Z,5.50
2018-11-20T07:11:51.134Z,5.40
2018-11-20T07:14:44.874Z,5.50
2018-11-20T07:17:48.995Z,5.50
2018-11-20T07:20:46.281Z,5.50
2018-11-20T07:23:50.285Z,5.60
2018-11-20T07:26:44.068Z,5.60
2018-11-20T07:29:46.592Z,5.50
2018-11-20T07:32:44.059Z,5.60
2018-11-20T07:35:39.536Z,5.50
2018-11-20T07:38:49.848Z,5.60
2018-11-20T07:41:44.337Z,5.50
2018-11-20T07:44:55.619Z,5.60
2018-11-20T07:47:46.721Z,5.70
2018-11-20T07:50:38.141Z,5.50
2018-11-20T07:53:07.295Z,5.60
2018-11-20T07:56:13.935Z,5.50
2018-11-20T07:59:07.061Z,5.50
2018-11-20T08:02:07.414Z,5.40
2018-11-20T08:04:51.053Z,5.50
2018-11-20T08:07:47.409Z,5.50
2018-11-20T08:10:51.599Z,5.50
2018-11-20T08:13:41.980Z,5.50
2018-11-20T08:16:25.435Z,5.70
2018-11-20T08:19:09.936Z,5.60
2018-11-20T08:22:08.353Z,5.70
2018-11-20T08:25:05.498Z,5.70
2018-11-20T08:28:08.914Z,5.80
2018-11-20T08:31:03.765Z,5.80
2018-11-20T08:33:50.305Z,6.00
2018-11-20T08:36:44.395Z,5.90
2018-11-20T08:39:54.528Z,5.80
2018-11-20T08:42:48.706Z,5.90
2018-11-20T08:45:54.601Z,5.90
2018-11-20T08:48:49.944Z,5.90
2018-11-20T08:51:33.516Z,5.90
2018-11-20T08:54:32.036Z,6.00
2018-11-20T08:57:23.337Z,6.00
2018-11-20T09:00:25.108Z,5.90
2018-11-20T09:03:25.674Z,5.90
2018-11-20T09:06:20.653Z,6.00
2018-11-20T09:09:09.791Z,6.10
2018-11-20T09:12:14.437Z,6.20
2018-11-20T09:15:18.572Z,6.10
2018-11-20T09:18:28.376Z,6.10
2018-11-20T09:21:29.150Z,6.10
2018-11-20T09:24:21.987Z,6.10
2018-11-20T09:27:33.198Z,6.10
2018-11-20T09:30:38.686Z,6.20
2018-11-20T09:33:22.935Z,6.20
2018-11-20T09:36:19.506Z,6.20
2018-11-20T09:39:10.705Z,6.20
2018-11-20T09:41:50.700Z,6.30
2018-11-20T09:45:02.636Z,6.30
2018-11-20T09:48:03.290Z,6.30
2018-11-20T09:51:06.035Z,6.30
2018-11-20T09:54:18.750Z,6.30
2018-11-20T09:57:12.412Z,6.40
2018-11-20T10:00:08.597Z,6.30
2018-11-20T10:03:21.138Z,6.30
2018-11-20T10:06:13.434Z,6.30
2018-11-20T10:08:55.051Z,6.40
2018-11-20T10:12:09.181Z,6.50
2018-11-20T10:15:00.530Z,6.50
2018-11-20T10:17:52.339Z,6.60
2018-11-20T10:20:57.247Z,6.70
2018-11-20T10:23:44.294Z,6.70
2018-11-20T10:26:46.320Z,6.80
2018-11-20T10:29:40.372Z,6.80
2018-11-20T10:32:33.519Z,6.90
2018-11-20T10:35:30.662Z,6.70
2018-11-20T10:38:22.099Z,6.80
2018-11-20T10:41:17.453Z,6.80
2018-11-20T10:44:21.739Z,6.80
2018-11-20T10:47:23.306Z,6.80
2018-11-20T10:50:16.286Z,6.90
2018-11-20T10:53:01.627Z,6.80
2018-11-20T10:56:00.426Z,6.80
2018-11-20T10:58:51.070Z,6.80
2018-11-20T11:01:44.755Z,6.70
2018-11-20T11:04:38.293Z,6.80
2018-11-20T11:07:30.128Z,6.80
2018-11-20T11:10:38.106Z,6.90
2018-11-20T11:13:29.424Z,6.90
2018-11-20T11:16:27.948Z,7.00
2018-11-20T11:19:19.227Z,6.90
2018-11-20T11:22:06.782Z,6.90
2018-11-20T11:25:00.293Z,7.00
2018-11-20T11:27:54.102Z,7.00
2018-11-20T11:31:02.742Z,7.00
2018-11-20T11:34:18.024Z,6.80
2018-11-20T11:37:28.456Z,7.00
2018-11-20T11:40:09.152Z,7.10
2018-11-20T11:43:17.869Z,7.10
2018-11-20T11:46:23.304Z,7.20
2018-11-20T11:49:16.995Z,7.00
2018-11-20T11:52:03.365Z,6.90
2018-11-20T11:55:07.148Z,7.00
2018-11-20T11:58:25.166Z,7.00
2018-11-20T12:01:26.600Z,7.00
2018-11-20T12:04:17.672Z,7.10
2018-11-20T12:07:05.656Z,7.20
2018-11-20T12:10:18.642Z,7.40
2018-11-20T12:16:01.810Z,7.10
2018-11-20T12:19:00.574Z,7.10
2018-11-20T12:22:02.129Z,7.20
2018-11-20T12:25:06.197Z,7.10
2018-11-20T12:27:59.309Z,7.20
2018-11-20T12:30:42.563Z,7.20
2018-11-20T12:33:24.006Z,7.10
2018-11-20T12:36:18.150Z,7.10
2018-11-20T12:39:07.561Z,7.10
2018-11-20T12:41:52.184Z,7.10
2018-11-20T12:44:41.429Z,7.00
2018-11-20T12:47:32.020Z,7.10
2018-11-20T12:50:31.830Z,7.10
2018-11-20T12:53:42.384Z,7.00
2018-11-20T12:56:33.985Z,7.10
2018-11-20T12:59:23.114Z,7.10
2018-11-20T13:02:34.401Z,7.10
2018-11-20T13:05:33.310Z,7.20
2018-11-20T13:08:31.065Z,7.20
2018-11-20T13:11:22.369Z,7.20
2018-11-20T13:14:30.330Z,7.10
2018-11-20T13:17:30.195Z,7.20
2018-11-20T13:20:19.953Z,7.00
2018-11-20T13:23:15.338Z,7.10
2018-11-20T13:26:07.779Z,6.90
2018-11-20T13:29:02.862Z,7.10
2018-11-20T13:32:02.431Z,7.10
2018-11-20T13:34:54.754Z,7.10
2018-11-20T13:37:47.428Z,7.20
2018-11-20T13:41:20.482Z,7.20
2018-11-20T13:44:11.932Z,7.20
2018-11-20T13:47:01.655Z,7.00
2018-11-20T13:49:52.928Z,7.10
2018-11-20T13:52:43.842Z,7.10
2018-11-20T13:55:27.356Z,7.00
2018-11-20T13:58:19.376Z,7.00
2018-11-20T14:01:31.664Z,7.00
2018-11-20T14:04:25.119Z,7.20
2018-11-20T14:07:15.911Z,7.20
2018-11-20T14:10:20.885Z,7.10
2018-11-20T14:13:24.188Z,7.10
2018-11-20T14:16:17.147Z,7.10
2018-11-20T14:19:10.328Z,7.10
2018-11-20T14:22:01.577Z,7.00
2018-11-20T14:24:52.382Z,6.90
2018-11-20T14:27:59.605Z,6.90
2018-11-20T14:30:50.556Z,6.80
2018-11-20T14:33:39.682Z,6.80
2018-11-20T14:36:39.907Z,6.80
2018-11-20T14:39:40.466Z,6.80
2018-11-20T14:42:23.480Z,6.90
2018-11-20T14:45:15.577Z,6.90
2018-11-20T14:48:04.092Z,6.90
2018-11-20T14:51:02.782Z,6.70
2018-11-20T14:53:56.677Z,6.90
2018-11-20T14:56:41.648Z,6.80
2018-11-20T14:59:32.556Z,6.80
2018-11-20T15:02:23.559Z,6.80
2018-11-20T15:05:12.898Z,6.80
2018-11-20T15:08:06.476Z,6.90
2018-11-20T15:11:11.027Z,6.80
2018-11-20T15:13:56.937Z,6.90
2018-11-20T15:17:04.680Z,6.80
2018-11-20T15:19:54.021Z,6.80
2018-11-20T15:23:01.225Z,6.70
2018-11-20T15:25:56.625Z,6.60
2018-11-20T15:28:57.622Z,6.70
2018-11-20T15:31:50.551Z,6.70
2018-11-20T15:34:39.616Z,6.50
2018-11-20T15:37:22.337Z,6.50
2018-11-20T15:40:09.847Z,6.70
2018-11-20T15:43:06.436Z,6.60
2018-11-20T15:45:55.599Z,6.50
2018-11-20T15:48:50.807Z,6.40
2018-11-20T15:51:41.414Z,6.40
2018-11-20T15:54:34.492Z,6.40
2018-11-20T15:57:25.899Z,6.30
2018-11-20T16:00:23.527Z,6.40
2018-11-20T16:03:35.307Z,6.40
2018-11-20T16:06:32.655Z,6.40
2018-11-20T16:09:27.098Z,6.50
2018-11-20T16:12:15.380Z,6.30
2018-11-20T16:15:08.858Z,6.40
2018-11-20T16:17:59.582Z,6.30
2018-11-20T16:21:04.024Z,6.40
2018-11-20T16:24:08.446Z,6.60
2018-11-20T16:27:00.372Z,6.60
2018-11-20T16:29:47.825Z,6.50
2018-11-20T16:32:36.497Z,6.40
2018-11-20T16:35:42.488Z,6.30
2018-11-20T16:38:37.483Z,6.40
2018-11-20T16:41:32.097Z,6.50
2018-11-20T16:44:19.507Z,6.40
2018-11-20T16:47:14.754Z,6.40
2018-11-20T16:50:02.909Z,6.50
2018-11-20T16:52:50.489Z,6.40
2018-11-20T16:55:39.709Z,6.40
2018-11-20T16:58:43.566Z,6.60
2018-11-20T17:01:31.488Z,6.60
2018-11-20T17:04:23.695Z,6.70
2018-11-20T17:07:18.290Z,6.80
2018-11-20T17:10:06.087Z,6.70
2018-11-20T17:13:03.181Z,6.80
2018-11-20T17:15:48.199Z,6.80
2018-11-20T17:18:38.803Z,6.70
2018-11-20T17:21:32.894Z,6.70
2018-11-20T17:24:37.816Z,6.70
2018-11-20T17:27:33.299Z,6.50
2018-11-20T17:30:28.736Z,6.60
2018-11-20T17:33:24.056Z,6.70
2018-11-20T17:36:10.377Z,6.50
2018-11-20T17:38:57.399Z,6.40
2018-11-20T17:41:53.034Z,6.30
2018-11-20T17:44:47.520Z,6.30
2018-11-20T17:47:33.472Z,6.40
2018-11-20T17:50:27.009Z,6.30
2018-11-20T17:53:28.380Z,6.40
2018-11-20T17:56:27.209Z,6.30
2018-11-20T17:59:15.532Z,6.30
2018-11-20T18:02:12.505Z,6.30
2018-11-20T18:05:05.392Z,6.20
2018-11-20T18:07:58.018Z,6.10
2018-11-20T18:11:09.533Z,6.00
2018-11-20T18:14:10.659Z,5.90
2018-11-20T18:16:58.857Z,6.00
2018-11-20T18:19:53.719Z,6.00
2018-11-20T18:22:55.415Z,6.10
2018-11-20T18:25:46.547Z,6.20
2018-11-20T18:28:46.441Z,6.10
2018-11-20T18:31:40.688Z,6.20
2018-11-20T18:34:31.646Z,6.20
2018-11-20T18:37:25.860Z,6.20
2018-11-20T18:40:17.910Z,6.30
2018-11-20T18:43:15.225Z,6.20
2018-11-20T18:46:10.501Z,6.30
2018-11-20T18:49:11.875Z,6.40
2018-11-20T18:52:04.128Z,6.40
2018-11-20T18:54:59.200Z,6.30
2018-11-20T18:57:46.274Z,6.30
2018-11-20T19:00:41.014Z,6.40
2018-11-20T19:03:51.612Z,6.30
2018-11-20T19:06:44.687Z,6.20
2018-11-20T19:09:35.496Z,6.30
2018-11-20T19:12:44.698Z,6.30
2018-11-20T19:15:41.620Z,6.30
2018-11-20T19:18:19.107Z,6.30
2018-11-20T19:21:17.280Z,6.40
2018-11-20T19:24:16.290Z,6.40
2018-11-20T19:27:10.654Z,6.40
2018-11-20T19:30:11.770Z,6.40
2018-11-20T19:33:00.715Z,6.30
2018-11-20T19:35:56.544Z,6.20
2018-11-20T19:38:49.155Z,6.10
2018-11-20T19:41:52.054Z,6.30
2018-11-20T19:44:42.743Z,6.30
2018-11-20T19:47:47.414Z,6.30
2018-11-20T19:50:39.914Z,6.10
2018-11-20T19:53:40.812Z,6.10
2018-11-20T19:56:32.496Z,6.20
2018-11-20T19:59:35.375Z,6.10
2018-11-20T20:02:26.206Z,6.20
2018-11-20T20:05:17.896Z,6.20
2018-11-20T20:08:11.102Z,6.10
2018-11-20T20:11:13.003Z,6.00
2018-11-20T20:17:04.734Z,6.00
2018-11-20T20:19:53.056Z,6.10
2018-11-20T20:22:39.637Z,6.10
2018-11-20T20:25:38.579Z,6.10
2018-11-20T20:28:29.577Z,6.20
2018-11-20T20:31:23.869Z,6.20
2018-11-20T20:34:15.246Z,6.20
2018-11-20T20:37:07.999Z,6.10
2018-11-20T20:40:07.932Z,6.10
2018-11-20T20:42:51.064Z,6.10
2018-11-20T20:45:44.429Z,6.00
2018-11-20T20:48:57.833Z,6.00
2018-11-20T20:51:49.783Z,6.10
2018-11-20T20:54:40.715Z,6.00
2018-11-20T20:57:22.314Z,5.90
2018-11-20T21:00:09.118Z,6.00
2018-11-20T21:03:08.645Z,5.80
2018-11-20T21:06:07.053Z,5.90
2018-11-20T21:09:02.007Z,6.10
2018-11-20T21:11:35.394Z,6.20
2018-11-20T21:14:28.089Z,6.20
2018-11-20T21:17:15.962Z,6.20
2018-11-20T21:20:21.574Z,6.30
2018-11-20T21:23:12.331Z,6.30
2018-11-20T21:27:00.887Z,6.20
2018-11-20T21:30:01.292Z,6.20
2018-11-20T21:33:01.752Z,6.30
2018-11-20T21:36:02.530Z,6.40
2018-11-20T21:39:08.825Z,6.30
2018-11-20T21:42:00.032Z,6.20
2018-11-20T21:45:00.776Z,6.20
2018-11-20T21:48:01.180Z,6.20
2018-11-20T21:50:56.496Z,6.30
2018-11-20T21:53:59.866Z,6.30
